1986 ERINESTA (1986029S14069)


On this page: IBTrACS data - Map and Plots - Positions - Intensities - Original source data

Summary

Start Jan 29
End Feb 11
Basin SI
LMI 125 kt
Sources jtwc_sh
reunion
td9636
neumann
In WMO? Yes
Previous storm 1986 JUDY (WP)
Previous in basin 1986 PANCHO (SI)
Concurrent storms 1986 WINIFRED (SP)
1986 MISSING (WP)
1986 JUDY (WP)
1986 ERINESTA (SI)
1986 FILOMENA (SI)
1986 IMA (SP)
1986 JUNE (SP)
1986 MISSING (SP)
1986 KELI (SP)
Next in basin 1986 FILOMENA (SI)
Next storm 1986 FILOMENA (SI)

top of page IBTrACS Data: File Access

top of page HURSAT Data: File Access

Image of storm

top of page Plots:

Map of storm track will not appear if FTP is down
Time series of cyclone Maximum Sustained Wind will not appear if FTP is down
Time series of cyclone Minimum Central Pressure will not appear if FTP is down

top of page Track Data:Position

jtwc_sh reunion td9636 neumann
Date Lat Lon Lat Lon Lat Lon Lat Lon
1986-01-29 06:00:00 -13.5 69.4
1986-01-29 12:00:00 -13.1 69.1 -12.8 68.7
1986-01-29 18:00:00 -12.5 68.2 -12.4 67.9
1986-01-30 00:00:00 -11.9 66.8 -12.2 67.1 -12.3 67.0 -11.9 66.8
1986-01-30 06:00:00 -12.0 65.8 -12.2 66.1 -12.3 66.2 -12.0 65.8
1986-01-30 12:00:00 -12.1 65.1 -12.2 65.4 -12.3 65.5 -12.1 65.1
1986-01-30 18:00:00 -12.1 64.7 -12.2 64.8 -12.2 64.8 -12.1 64.7
1986-01-31 00:00:00 -12.0 64.2 -12.0 64.0 -12.0 64.1 -12.0 64.2
1986-01-31 06:00:00 -11.9 63.7 -12.0 63.3 -11.9 63.4 -11.9 63.7
1986-01-31 12:00:00 -11.8 63.2 -11.9 62.7 -11.8 62.6 -11.8 63.2
1986-01-31 18:00:00 -11.7 62.7 -11.9 62.0 -11.8 62.0 -11.7 62.7
1986-02-01 00:00:00 -11.7 62.2 -12.0 61.3 -12.0 61.9 -11.7 62.2
1986-02-01 06:00:00 -11.8 61.7 -12.1 60.9 -12.2 61.8 -11.8 61.7
1986-02-01 12:00:00 -12.0 61.2 -12.2 60.3 -12.3 61.1 -12.0 61.2
1986-02-01 18:00:00 -12.2 60.8 -12.4 60.1 -12.4 60.3 -12.2 60.8
1986-02-02 00:00:00 -12.4 60.3 -12.5 60.0 -12.5 59.9 -12.4 60.3
1986-02-02 06:00:00 -12.7 59.7 -12.8 59.8 -12.7 59.7 -12.7 59.7
1986-02-02 12:00:00 -13.1 59.1 -13.1 58.9 -13.1 59.4 -13.1 59.1
1986-02-02 18:00:00 -13.5 58.6 -13.5 58.1 -13.6 58.9 -13.5 58.6
1986-02-03 00:00:00 -13.9 58.0 -14.0 57.3 -14.0 57.8 -13.9 58.0
1986-02-03 06:00:00 -14.3 57.3 -14.5 56.6 -14.4 56.6 -14.3 57.3
1986-02-03 12:00:00 -14.6 56.6 -14.8 56.1 -14.8 55.9 -14.6 56.6
1986-02-03 18:00:00 -14.8 56.1 -15.0 55.6 -15.1 55.5 -14.8 56.1
1986-02-04 00:00:00 -15.1 55.5 -15.2 55.0 -15.4 55.1 -15.1 55.5
1986-02-04 06:00:00 -15.4 54.9 -15.5 54.5 -15.6 54.6 -15.4 54.9
jtwc_sh reunion td9636 neumann
1986-02-04 12:00:00 -15.7 54.4 -15.8 54.0 -15.9 53.9 -15.7 54.4
1986-02-04 18:00:00 -16.0 54.1 -16.2 53.2 -16.3 53.2 -16.0 54.1
1986-02-05 00:00:00 -16.3 53.9 -16.7 52.8 -16.8 52.9 -16.3 53.9
1986-02-05 06:00:00 -16.6 53.7 -17.2 52.7 -17.2 52.7 -16.6 53.7
1986-02-05 12:00:00 -17.0 53.4 -17.6 52.4 -17.5 52.6 -17.0 53.4
1986-02-05 18:00:00 -17.4 53.3 -18.0 52.4 -17.8 52.5 -17.4 53.3
1986-02-06 00:00:00 -17.8 53.3 -18.2 52.4 -18.1 52.5 -17.8 53.3
1986-02-06 06:00:00 -18.2 53.3 -18.6 52.5 -18.5 52.6 -18.2 53.3
1986-02-06 12:00:00 -18.6 53.3 -19.0 52.7 -18.9 52.7 -18.6 53.3
1986-02-06 18:00:00 -19.0 53.3 -19.3 52.9 -19.4 52.8 -19.0 53.3
1986-02-07 00:00:00 -19.4 53.4 -19.8 53.0 -19.8 53.0 -19.4 53.4
1986-02-07 06:00:00 -19.8 53.4 -20.2 53.2 -20.3 53.2 -19.8 53.4
1986-02-07 12:00:00 -20.3 53.5 -20.8 53.2 -20.8 53.3 -20.3 53.5
1986-02-07 18:00:00 -20.8 53.5 -21.2 53.2 -21.4 53.4 -20.8 53.5
1986-02-08 00:00:00 -21.3 53.6 -21.8 53.4 -21.8 53.4 -21.3 53.6
1986-02-08 06:00:00 -22.1 53.6 -22.3 53.3 -22.3 53.4 -22.1 53.6
1986-02-08 12:00:00 -23.1 53.6 -23.1 53.2 -23.1 53.3 -23.1 53.6
1986-02-08 18:00:00 -24.2 53.4 -24.0 53.1 -24.1 53.1 -24.2 53.4
1986-02-09 00:00:00 -25.5 53.3 -25.0 52.9 -24.9 52.8 -25.5 53.3
1986-02-09 06:00:00 -27.1 53.5 -26.0 52.5 -26.0 52.6 -27.1 53.5
1986-02-09 12:00:00 -28.7 53.9 -27.5 52.1 -27.6 52.3 -28.7 53.9
1986-02-09 18:00:00 -30.1 54.4 -29.0 52.1 -29.3 52.3 -30.1 54.4
1986-02-10 00:00:00 -31.4 54.9 -30.8 52.9 -31.0 53.1 -31.4 54.9
1986-02-10 06:00:00 -32.5 55.3 -32.5 54.3 -32.5 54.4 -32.5 55.3
jtwc_sh reunion td9636 neumann
1986-02-10 12:00:00 -33.6 55.8 -33.1 55.4 -33.4 55.6 -33.6 55.8
1986-02-10 18:00:00 -34.6 56.4 -33.9 56.7 -34.0 56.9 -34.6 56.4
1986-02-11 00:00:00 -35.6 57.0 -34.5 57.9 -34.5 58.0 -35.6 57.0
1986-02-11 06:00:00 -35.0 59.0 -34.9 59.1
1986-02-11 12:00:00 -36.2 61.0

top of pageTrack Data:Intensity

jtwc_sh reunion td9636 neumann
Date Wind Pres Wind Pres Wind Pres Wind Pres
1986-01-29 06:00:00 25.
1986-01-29 12:00:00 20. 1003. 25.
1986-01-29 18:00:00 20. 1003. 30.
1986-01-30 00:00:00 25. 20. 1000. 30. 25.
1986-01-30 06:00:00 25. 20. 1000. 30. 25.
1986-01-30 12:00:00 25. 20. 1000. 30. 25.
1986-01-30 18:00:00 25. 20. 1000. 35. 25.
1986-01-31 00:00:00 30. 28. 997. 35. 30.
1986-01-31 06:00:00 30. 36. 991. 40. 30.
1986-01-31 12:00:00 35. 36. 991. 40. 35.
1986-01-31 18:00:00 35. 36. 991. 45. 35.
1986-02-01 00:00:00 40. 44. 984. 45. 40.
1986-02-01 06:00:00 50. 44. 984. 50. 50.
1986-02-01 12:00:00 60. 52. 976. 50. 60.
1986-02-01 18:00:00 65. 62. 966. 65. 65.
1986-02-02 00:00:00 75. 72. 954. 65. 75.
1986-02-02 06:00:00 85. 72. 954. 85. 85.
1986-02-02 12:00:00 95. 72. 954. 85. 95.
1986-02-02 18:00:00 100. 72. 954. 90. 100.
1986-02-03 00:00:00 105. 72. 954. 90. 105.
1986-02-03 06:00:00 110. 82. 941. 97. 110.
1986-02-03 12:00:00 110. 82. 941. 97. 110.
1986-02-03 18:00:00 110. 82. 941. 100. 110.
1986-02-04 00:00:00 110. 82. 941. 100. 110.
1986-02-04 06:00:00 110. 92. 927. 110. 110.
jtwc_sh reunion td9636 neumann
1986-02-04 12:00:00 115. 92. 927. 110. 115.
1986-02-04 18:00:00 115. 92. 927. 95. 125. 927.
1986-02-05 00:00:00 115. 92. 941. 95. 115.
1986-02-05 06:00:00 110. 72. 954. 85. 110.
1986-02-05 12:00:00 105. 72. 954. 85. 105.
1986-02-05 18:00:00 100. 72. 954. 80. 100.
1986-02-06 00:00:00 95. 62. 966. 80. 95.
1986-02-06 06:00:00 90. 62. 966. 72. 90.
1986-02-06 12:00:00 90. 62. 966. 72. 90.
1986-02-06 18:00:00 90. 62. 966. 72. 90.
1986-02-07 00:00:00 85. 62. 966. 72. 85.
1986-02-07 06:00:00 85. 62. 966. 72. 85.
1986-02-07 12:00:00 80. 62. 966. 72. 80.
1986-02-07 18:00:00 80. 52. 976. 72. 80.
1986-02-08 00:00:00 75. 52. 976. 72. 75.
1986-02-08 06:00:00 75. 62. 966. 72. 75.
1986-02-08 12:00:00 70. 62. 966. 72. 70.
1986-02-08 18:00:00 70. 52. 976. 65. 70.
1986-02-09 00:00:00 65. 52. 976. 65. 65.
1986-02-09 06:00:00 60. 44. 984. 50. 60.
1986-02-09 12:00:00 55. 36. 50. 55.
1986-02-09 18:00:00 55. 36. 40. 55.
1986-02-10 00:00:00 50. 36. 40. 50.
1986-02-10 06:00:00 45. 36. 45.
jtwc_sh reunion td9636 neumann
1986-02-10 12:00:00 40. 36. 40.
1986-02-10 18:00:00 35. 36. 35.
1986-02-11 00:00:00 35. 36. 35.
1986-02-11 06:00:00 36.
1986-02-11 12:00:00 36.

top of page Links to source data

Source Source file Format
jtwc_sh bsh131986.txt ATCF
reunion WMO-Best-Tracks.txt:Line=13428:erinesta WMO (old format)
td9636 cons_worldwide_trop_cyclone_18710101-19891231-005:Line=13231 TD 9636
neumann tracks.sh:Storm=765:ERINESTA:BSH131986:JTWC HURDAT